Time;durP1;ratioP1;P1;durP2;ratioP2;P2;SDS_P1;SDS_P2;PMS_P1;PMS_P2;Temp;Humidity;BMP_temperature;BMP_pressure;BME280_temperature;BME280_humidity;BME280_pressure;Samples;Min_cycle;Max_cycle;Signal;HPM_P1;HPM_P2
2022/06/12 00:02:46;;;;;;;4.30;2.30;;;24.30;66.90;;;;;;5096608;28;20043;-74
2022/06/12 00:05:52;;;;;;;9.73;2.70;;;24.30;66.90;;;;;;5097027;28;20055;-75
2022/06/12 00:08:57;;;;;;;7.43;3.13;;;24.40;66.70;;;;;;5098530;28;20043;-74
2022/06/12 00:12:01;;;;;;;8.38;2.70;;;24.30;66.50;;;;;;5097429;28;20051;-75
2022/06/12 00:15:06;;;;;;;7.72;2.60;;;24.40;66.10;;;;;;5095665;28;20110;-74
2022/06/12 00:18:11;;;;;;;6.72;2.40;;;24.30;65.50;;;;;;5094633;28;20047;-73
2022/06/12 00:21:16;;;;;;;6.32;2.60;;;24.30;65.50;;;;;;5096936;28;20039;-74
2022/06/12 00:24:21;;;;;;;4.80;2.50;;;24.30;65.60;;;;;;5095858;28;20059;-75
2022/06/12 00:27:25;;;;;;;5.72;2.80;;;24.30;65.60;;;;;;5094805;28;20035;-74
2022/06/12 00:30:29;;;;;;;6.45;2.97;;;24.30;66.10;;;;;;5094716;28;20039;-74
2022/06/12 00:33:34;;;;;;;7.72;2.72;;;24.30;66.20;;;;;;5095325;28;20443;-74
2022/06/12 00:36:39;;;;;;;4.22;2.53;;;24.30;66.00;;;;;;5093948;28;20042;-75
2022/06/12 00:39:45;;;;;;;6.88;3.15;;;24.20;66.20;;;;;;5098418;28;20067;-74
2022/06/12 00:42:55;;;;;;;4.25;2.97;;;24.20;67.30;;;;;;5093901;28;20050;-74
2022/06/12 00:46:02;;;;;;;6.47;2.47;;;24.20;67.50;;;;;;5093584;28;20043;-74
2022/06/12 00:49:14;;;;;;;4.72;2.47;;;24.10;67.20;;;;;;5093769;28;20043;-74
2022/06/12 00:52:29;;;;;;;4.35;2.92;;;23.90;67.30;;;;;;5094338;28;20058;-74
2022/06/12 00:55:43;;;;;;;14.32;4.10;;;23.90;67.60;;;;;;5094980;28;20043;-74
2022/06/12 00:58:52;;;;;;;5.95;2.60;;;23.90;68.00;;;;;;5092372;28;20527;-73
2022/06/12 01:01:56;;;;;;;6.88;2.85;;;23.80;68.80;;;;;;5093229;28;20051;-74
2022/06/12 01:08:26;;;;;;;4.07;2.60;;;23.80;69.90;;;;;;5093449;28;20495;-75
2022/06/12 01:11:32;;;;;;;5.00;2.65;;;23.70;69.50;;;;;;5094568;28;20047;-74
2022/06/12 01:14:42;;;;;;;8.77;2.85;;;23.80;69.20;;;;;;5093163;28;20395;-74
2022/06/12 01:17:47;;;;;;;13.27;3.30;;;23.80;68.50;;;;;;5094084;28;20110;-73
2022/06/12 01:21:10;;;;;;;4.93;2.90;;;23.90;68.20;;;;;;5094373;28;20641;-73
2022/06/12 01:24:30;;;;;;;6.18;2.90;;;24.10;67.70;;;;;;5094377;28;20050;-74
2022/06/12 01:27:40;;;;;;;6.85;3.40;;;24.20;67.40;;;;;;5093706;28;20043;-73
2022/06/12 01:31:03;;;;;;;5.60;3.03;;;24.30;67.10;;;;;;5095024;28;20051;-74
2022/06/12 01:34:29;;;;;;;7.43;3.17;;;24.30;67.20;;;;;;5095925;28;20051;-73
2022/06/12 01:37:39;;;;;;;3.67;2.60;;;24.30;67.20;;;;;;5097821;28;20162;-75
2022/06/12 01:40:57;;;;;;;5.88;3.33;;;24.30;67.10;;;;;;5093830;28;20043;-72
2022/06/12 01:44:37;;;;;;;3.42;2.83;;;24.40;67.00;;;;;;5093809;28;20043;-74
2022/06/12 01:47:53;;;;;;;5.28;3.10;;;24.40;66.90;;;;;;5096806;28;20043;-74
2022/06/12 01:51:16;;;;;;;5.68;2.88;;;24.40;66.50;;;;;;5096714;28;20498;-74
2022/06/12 01:54:46;;;;;;;4.18;3.00;;;24.40;66.60;;;;;;5096902;28;20051;-74
2022/06/12 01:57:57;;;;;;;10.57;3.47;;;24.40;66.60;;;;;;5093995;28;20055;-73
2022/06/12 02:01:33;;;;;;;5.70;2.72;;;24.40;66.90;;;;;;5096351;28;20058;-75
2022/06/12 02:05:00;;;;;;;7.05;3.20;;;24.30;66.90;;;;;;5092894;28;20114;-74
2022/06/12 02:08:28;;;;;;;5.25;2.80;;;24.30;67.00;;;;;;5095138;28;20040;-74
2022/06/12 02:15:38;;;;;;;5.47;3.38;;;24.30;66.80;;;;;;5095298;28;20047;-74
2022/06/12 02:18:57;;;;;;;4.47;3.00;;;24.20;66.80;;;;;;5092969;28;20047;-74
2022/06/12 02:22:07;;;;;;;6.65;2.47;;;24.20;66.60;;;;;;5095380;28;20296;-75
2022/06/12 02:25:23;;;;;;;8.18;2.70;;;24.20;66.80;;;;;;5082829;28;20039;-74
2022/06/12 02:28:37;;;;;;;8.38;2.95;;;24.30;66.60;;;;;;5083198;28;20198;-74
2022/06/12 02:31:44;;;;;;;4.68;2.80;;;24.30;67.90;;;;;;5094937;28;20547;-74
2022/06/12 02:35:06;;;;;;;17.38;3.78;;;24.30;67.80;;;;;;5095790;28;20043;-74
2022/06/12 02:38:15;;;;;;;4.45;2.90;;;24.20;68.50;;;;;;5096877;28;20047;-74
2022/06/12 02:41:35;;;;;;;6.85;2.75;;;24.10;68.90;;;;;;5095516;28;20051;-74
2022/06/12 02:44:42;;;;;;;5.85;2.78;;;24.00;69.40;;;;;;5095102;28;20392;-73
2022/06/12 02:47:48;;;;;;;4.60;2.50;;;23.90;68.20;;;;;;5083357;28;20205;-73
2022/06/12 02:51:34;;;;;;;5.90;2.42;;;23.80;67.30;;;;;;5097591;28;20047;-73
2022/06/12 02:55:02;;;;;;;5.40;2.65;;;23.90;67.20;;;;;;5098043;28;20059;-73
2022/06/12 02:58:13;;;;;;;4.40;2.85;;;23.90;67.00;;;;;;5096340;28;20190;-74
2022/06/12 03:01:22;;;;;;;6.13;2.35;;;23.90;66.50;;;;;;5098858;28;20055;-73
2022/06/12 03:04:38;;;;;;;5.43;2.70;;;24.10;66.30;;;;;;5097932;28;20396;-74
2022/06/12 03:07:42;;;;;;;3.75;2.40;;;24.20;66.20;;;;;;5098088;28;20043;-75
2022/06/12 03:10:55;;;;;;;5.65;2.70;;;24.20;66.10;;;;;;5097379;28;20058;-74
2022/06/12 03:13:59;;;;;;;4.07;2.72;;;24.10;66.30;;;;;;5096132;28;20046;-74
2022/06/12 03:17:03;;;;;;;9.05;3.00;;;24.10;66.60;;;;;;5097174;28;20039;-75
2022/06/12 03:20:11;;;;;;;3.42;2.83;;;24.10;66.20;;;;;;5098686;28;20047;-74
2022/06/12 03:23:35;;;;;;;3.90;2.85;;;24.10;66.20;;;;;;5096913;28;20043;-74
2022/06/12 03:26:51;;;;;;;6.35;2.25;;;24.10;66.10;;;;;;5099466;28;20047;-73
2022/06/12 03:30:06;;;;;;;7.03;2.50;;;24.10;66.40;;;;;;5098981;28;20049;-74
2022/06/12 03:33:49;;;;;;;3.45;2.33;;;24.10;66.50;;;;;;5096917;28;20051;-74
2022/06/12 03:37:11;;;;;;;4.45;2.80;;;24.10;66.40;;;;;;5098527;28;20043;-74
2022/06/12 03:40:33;;;;;;;5.07;2.60;;;24.10;66.40;;;;;;5097920;28;20051;-74
2022/06/12 03:43:48;;;;;;;4.28;2.58;;;24.10;66.60;;;;;;5096099;28;20043;-74
2022/06/12 03:47:07;;;;;;;5.10;2.50;;;24.00;66.60;;;;;;5094576;28;20051;-75
2022/06/12 03:50:33;;;;;;;5.88;2.55;;;24.10;66.40;;;;;;5097761;28;20051;-74
2022/06/12 03:53:48;;;;;;;3.97;2.78;;;24.10;66.40;;;;;;5095956;28;20055;-74
2022/06/12 04:00:34;;;;;;;4.57;2.47;;;24.10;66.80;;;;;;5096847;28;20538;-75
2022/06/12 04:03:43;;;;;;;3.50;2.28;;;24.20;66.30;;;;;;5095040;28;20047;-74
2022/06/12 04:06:48;;;;;;;6.30;2.30;;;24.20;65.70;;;;;;5094858;28;20502;-74
2022/06/12 04:09:55;;;;;;;3.50;2.00;;;24.30;65.60;;;;;;5095867;28;20475;-74
2022/06/12 04:13:02;;;;;;;6.32;2.40;;;24.30;65.20;;;;;;5093030;28;20051;-74
2022/06/12 04:16:19;;;;;;;2.47;2.15;;;24.50;65.00;;;;;;5095083;28;20039;-74
2022/06/12 04:19:26;;;;;;;4.15;2.33;;;24.50;65.00;;;;;;5093118;28;20190;-74
2022/06/12 04:23:03;;;;;;;4.90;2.33;;;24.50;64.70;;;;;;5095420;28;20046;-74
2022/06/12 04:26:36;;;;;;;4.35;2.38;;;24.60;64.70;;;;;;5093308;28;20043;-75
2022/06/12 04:29:53;;;;;;;4.82;2.13;;;24.60;64.10;;;;;;5092646;28;20050;-73
2022/06/12 04:33:33;;;;;;;8.05;2.28;;;24.60;64.00;;;;;;5095101;28;20050;-74
2022/06/12 04:36:37;;;;;;;5.68;2.10;;;24.70;64.00;;;;;;5093028;28;20043;-74
2022/06/12 04:39:42;;;;;;;5.53;2.42;;;24.70;63.50;;;;;;5092463;28;20400;-73
2022/06/12 04:42:46;;;;;;;8.07;2.00;;;24.90;63.20;;;;;;5096774;28;20392;-73
2022/06/12 04:45:52;;;;;;;4.57;2.00;;;25.00;62.20;;;;;;5095623;28;20498;-71
2022/06/12 04:48:59;;;;;;;8.40;1.90;;;25.10;61.60;;;;;;5094508;28;20051;-73
2022/06/12 04:52:07;;;;;;;3.72;2.20;;;25.40;61.30;;;;;;5093504;28;20035;-73
2022/06/12 04:55:12;;;;;;;5.78;2.05;;;25.50;60.50;;;;;;5094112;28;20043;-74
2022/06/12 04:58:17;;;;;;;4.60;1.75;;;25.70;60.10;;;;;;5094398;28;20047;-74
2022/06/12 05:01:23;;;;;;;2.90;1.70;;;25.70;59.30;;;;;;5093087;28;20071;-73
2022/06/12 05:04:33;;;;;;;3.38;1.65;;;25.60;59.80;;;;;;5097155;28;20043;-74
2022/06/12 05:07:37;;;;;;;2.67;1.67;;;25.60;59.30;;;;;;5094255;28;20047;-73
2022/06/12 05:10:42;;;;;;;3.67;1.70;;;25.80;59.10;;;;;;5097077;28;20518;-73
2022/06/12 05:13:46;;;;;;;4.65;1.95;;;25.90;59.00;;;;;;5095344;28;20308;-73
2022/06/12 05:17:00;;;;;;;2.80;1.75;;;26.10;59.10;;;;;;5095506;28;20043;-74
2022/06/12 05:20:05;;;;;;;5.13;2.00;;;26.10;58.60;;;;;;5097143;28;20499;-73
2022/06/12 05:23:09;;;;;;;3.28;1.70;;;26.20;58.70;;;;;;5096484;28;20051;-74
2022/06/12 05:26:16;;;;;;;4.80;1.85;;;26.30;58.60;;;;;;5094610;28;20055;-74
2022/06/12 05:29:27;;;;;;;6.55;1.98;;;26.30;58.50;;;;;;5093716;28;20043;-73
2022/06/12 05:32:31;;;;;;;4.45;1.95;;;26.50;58.80;;;;;;5083916;28;20059;-74
2022/06/12 05:35:39;;;;;;;3.92;1.92;;;26.70;58.50;;;;;;5094231;28;20044;-71
2022/06/12 05:38:45;;;;;;;4.53;1.75;;;26.90;58.50;;;;;;5094040;28;20047;-72
2022/06/12 05:41:52;;;;;;;4.55;1.90;;;26.90;58.20;;;;;;5094195;28;20043;-72
2022/06/12 05:44:59;;;;;;;6.45;1.95;;;27.10;58.80;;;;;;5094805;28;20047;-73
2022/06/12 05:48:10;;;;;;;4.03;1.75;;;27.20;57.50;;;;;;5080239;28;20193;-73
2022/06/12 05:51:15;;;;;;;;;;;27.30;58.00;;;;;;5094495;28;20039;-74
2022/06/12 05:54:20;;;;;;;4.88;1.65;;;27.60;57.70;;;;;;5093859;28;19923;-73
2022/06/12 05:57:25;;;;;;;4.75;1.80;;;27.60;57.70;;;;;;5083257;28;20049;-72
2022/06/12 06:00:31;;;;;;;4.45;1.73;;;27.50;58.10;;;;;;5096903;28;20059;-72
2022/06/12 06:03:35;;;;;;;4.85;2.03;;;27.60;57.70;;;;;;5095951;28;20072;-74
2022/06/12 06:06:47;;;;;;;3.58;1.92;;;27.80;57.30;;;;;;5096997;28;20047;-72
2022/06/12 06:09:52;;;;;;;4.13;2.03;;;28.10;57.30;;;;;;5096675;28;20122;-71
2022/06/12 06:12:56;;;;;;;2.92;1.70;;;28.30;57.30;;;;;;5097596;28;20047;-74
2022/06/12 06:16:00;;;;;;;4.30;1.70;;;28.40;55.80;;;;;;5097052;28;20039;-74
2022/06/12 06:19:05;;;;;;;8.95;2.17;;;28.40;55.40;;;;;;5096257;28;20043;-72
2022/06/12 06:22:09;;;;;;;4.97;1.70;;;28.60;54.80;;;;;;5095972;28;20297;-73
2022/06/12 06:25:15;;;;;;;8.40;1.90;;;28.60;54.40;;;;;;5097227;28;20047;-73
2022/06/12 06:28:20;;;;;;;4.10;1.50;;;28.50;54.10;;;;;;5095859;28;20043;-72
2022/06/12 06:31:25;;;;;;;3.45;2.00;;;28.60;53.90;;;;;;5098632;28;20047;-72
2022/06/12 06:34:29;;;;;;;3.90;1.50;;;28.70;53.90;;;;;;5096500;28;20042;-73
2022/06/12 06:37:34;;;;;;;6.50;1.60;;;29.00;54.70;;;;;;5097668;28;20047;-72
2022/06/12 06:40:39;;;;;;;2.85;1.58;;;29.20;53.30;;;;;;5097047;28;20058;-73
2022/06/12 06:47:08;;;;;;;7.38;1.65;;;29.40;52.00;;;;;;5095407;28;20063;-71
2022/06/12 06:50:15;;;;;;;8.25;1.88;;;29.20;52.60;;;;;;5095024;28;20089;-72
2022/06/12 06:53:20;;;;;;;3.67;1.50;;;29.40;52.40;;;;;;5095495;28;20047;-73
2022/06/12 06:56:26;;;;;;;4.57;1.60;;;29.60;51.50;;;;;;5096309;28;20387;-72
2022/06/12 06:59:35;;;;;;;3.45;1.35;;;29.50;51.80;;;;;;5095988;28;20054;-72
2022/06/12 07:02:40;;;;;;;5.10;1.58;;;29.60;51.90;;;;;;5097304;28;20047;-72
2022/06/12 07:05:46;;;;;;;2.95;1.42;;;29.80;51.50;;;;;;5096074;28;20062;-73
2022/06/12 07:08:50;;;;;;;3.35;1.48;;;29.90;51.10;;;;;;5094270;28;20051;-73
2022/06/12 07:11:54;;;;;;;8.63;1.38;;;30.00;51.80;;;;;;5096185;28;20050;-73
2022/06/12 07:14:59;;;;;;;5.35;1.70;;;30.10;51.20;;;;;;5097488;28;20534;-73
2022/06/12 07:18:04;;;;;;;4.05;1.70;;;30.00;50.90;;;;;;5097043;28;20407;-73
2022/06/12 07:21:10;;;;;;;7.05;1.33;;;30.10;51.00;;;;;;5096910;28;20039;-73
2022/06/12 07:24:14;;;;;;;7.43;2.10;;;30.10;51.20;;;;;;5094520;28;20047;-73
2022/06/12 07:27:25;;;;;;;7.63;1.95;;;30.10;51.20;;;;;;5096344;28;20047;-72
2022/06/12 07:30:29;;;;;;;7.53;2.20;;;30.20;50.20;;;;;;5084014;28;20395;-74
2022/06/12 07:33:34;;;;;;;6.93;2.20;;;30.20;51.00;;;;;;5095078;28;20059;-73
2022/06/12 07:36:39;;;;;;;5.38;1.58;;;30.60;50.50;;;;;;5096211;28;20498;-72
2022/06/12 07:39:44;;;;;;;4.28;1.58;;;30.40;50.60;;;;;;5094602;28;20047;-73
2022/06/12 07:42:50;;;;;;;6.22;1.48;;;30.00;51.30;;;;;;5095319;28;20047;-72
2022/06/12 07:45:56;;;;;;;4.63;1.60;;;30.00;52.60;;;;;;5097361;28;20114;-73
2022/06/12 07:49:01;;;;;;;6.82;1.65;;;30.00;51.90;;;;;;5097398;28;20054;-73
2022/06/12 07:52:08;;;;;;;5.78;1.70;;;29.90;52.00;;;;;;5096314;28;20047;-74
2022/06/12 07:55:17;;;;;;;7.47;1.90;;;30.30;52.20;;;;;;5095082;28;20055;-73
2022/06/12 07:58:25;;;;;;;1.92;1.60;;;30.60;52.50;;;;;;5096833;28;20047;-74
2022/06/12 08:01:52;;;;;;;3.97;1.65;;;30.60;52.00;;;;;;5095484;28;20051;-72
2022/06/12 08:05:02;;;;;;;5.93;1.80;;;30.70;51.60;;;;;;5083697;28;20289;-73
2022/06/12 08:08:07;;;;;;;6.25;1.85;;;30.50;52.70;;;;;;5097904;28;20051;-72
2022/06/12 08:11:12;;;;;;;4.32;1.80;;;30.10;52.80;;;;;;5097554;28;20556;-72
2022/06/12 08:14:18;;;;;;;3.80;1.58;;;30.40;53.20;;;;;;5095175;28;20444;-72
2022/06/12 08:17:23;;;;;;;4.32;2.00;;;30.80;51.90;;;;;;5096309;28;20039;-73
2022/06/12 08:20:32;;;;;;;4.70;1.67;;;30.60;52.60;;;;;;5096777;28;20039;-72
2022/06/12 08:24:01;;;;;;;5.88;1.45;;;30.70;51.90;;;;;;5096541;28;20035;-73
2022/06/12 08:27:06;;;;;;;2.83;1.45;;;30.50;52.30;;;;;;5095842;28;20043;-72
2022/06/12 08:30:11;;;;;;;11.48;2.10;;;30.40;52.50;;;;;;5096616;28;20395;-73
2022/06/12 08:33:15;;;;;;;4.70;1.48;;;30.50;52.50;;;;;;5096148;28;20059;-72
2022/06/12 08:36:21;;;;;;;4.07;1.45;;;30.90;52.60;;;;;;5096590;28;20043;-74
2022/06/12 08:39:27;;;;;;;14.65;1.92;;;31.00;52.10;;;;;;5094430;28;20051;-72
2022/06/12 08:42:49;;;;;;;5.45;1.70;;;31.10;52.00;;;;;;5094362;28;20500;-72
2022/06/12 08:45:57;;;;;;;6.13;1.90;;;31.10;52.50;;;;;;5095153;28;20046;-72
2022/06/12 08:49:32;;;;;;;3.35;1.77;;;31.00;52.40;;;;;;5096374;28;20407;-73
2022/06/12 08:52:52;;;;;;;6.97;2.00;;;30.80;52.60;;;;;;5094288;28;20284;-72
2022/06/12 08:56:17;;;;;;;3.92;1.95;;;31.20;53.10;;;;;;5094106;28;20051;-71
2022/06/12 08:59:29;;;;;;;10.57;2.25;;;31.40;52.30;;;;;;5094894;28;20522;-73
2022/06/12 09:02:38;;;;;;;11.93;2.25;;;31.20;52.50;;;;;;5082211;28;20047;-73
2022/06/12 09:06:06;;;;;;;5.00;1.92;;;30.90;53.60;;;;;;5095843;28;20161;-74
2022/06/12 09:09:29;;;;;;;7.10;2.45;;;30.80;54.50;;;;;;5095563;28;20063;-73
2022/06/12 09:12:43;;;;;;;3.35;1.70;;;30.90;54.20;;;;;;5095214;28;20514;-74
2022/06/12 09:16:02;;;;;;;5.57;2.13;;;31.00;53.50;;;;;;5096133;28;20494;-72
2022/06/12 09:19:09;;;;;;;3.03;1.50;;;31.10;53.30;;;;;;5094103;28;20035;-73
2022/06/12 09:23:00;;;;;;;4.00;2.08;;;31.10;53.60;;;;;;5095145;28;20499;-72
2022/06/12 09:26:25;;;;;;;2.63;1.92;;;31.00;54.40;;;;;;5096282;28;20376;-72
2022/06/12 09:29:57;;;;;;;5.10;1.85;;;30.70;54.30;;;;;;5094082;28;20407;-72
2022/06/12 09:33:32;;;;;;;5.70;1.88;;;30.90;54.20;;;;;;5100394;28;20059;-74
2022/06/12 09:38:18;;;;;;;6.40;2.55;;;30.60;54.90;;;;;;5098912;28;20047;-73
2022/06/12 09:40:35;;;;;;;13.90;2.10;;;30.50;55.30;;;;;;5098336;28;20047;-74
2022/06/12 09:44:01;;;;;;;4.40;2.20;;;30.30;54.10;;;;;;5099983;28;20067;-72
2022/06/12 09:47:18;;;;;;;7.00;1.80;;;30.70;54.90;;;;;;5098742;28;20047;-73
2022/06/12 09:50:36;;;;;;;4.85;1.73;;;30.70;53.80;;;;;;5098027;28;20043;-73
2022/06/12 09:54:08;;;;;;;2.45;1.50;;;30.50;54.10;;;;;;5097681;28;20400;-72
2022/06/12 09:57:40;;;;;;;8.50;1.70;;;30.50;54.10;;;;;;5097142;28;20384;-73
2022/06/12 10:01:05;;;;;;;6.10;1.80;;;30.50;53.40;;;;;;5084917;28;20543;-74
2022/06/12 10:04:12;;;;;;;7.68;1.80;;;30.60;54.70;;;;;;5097195;28;20035;-73
2022/06/12 10:07:27;;;;;;;7.50;1.55;;;30.70;53.70;;;;;;5097627;28;20051;-73
2022/06/12 10:11:00;;;;;;;3.22;1.80;;;30.70;53.80;;;;;;5084585;28;20047;-74
2022/06/12 10:14:20;;;;;;;6.25;2.10;;;31.10;54.30;;;;;;5101093;28;20059;-73
2022/06/12 10:17:36;;;;;;;2.55;1.40;;;31.00;54.80;;;;;;5097203;28;20036;-73
2022/06/12 10:20:45;;;;;;;6.68;1.60;;;31.10;53.90;;;;;;5098075;28;20304;-71
2022/06/12 10:23:54;;;;;;;14.85;2.63;;;31.00;54.40;;;;;;5099062;28;20039;-73
2022/06/12 10:27:08;;;;;;;13.90;2.20;;;30.70;54.00;;;;;;5098916;28;20047;-71
2022/06/12 10:30:42;;;;;;;4.85;1.92;;;30.60;54.50;;;;;;5100869;28;20047;-72
2022/06/12 10:33:52;;;;;;;4.63;1.45;;;30.40;54.90;;;;;;5097999;28;20051;-72
2022/06/12 10:37:19;;;;;;;5.45;2.05;;;30.30;54.90;;;;;;5098446;28;20098;-71
2022/06/12 10:40:27;;;;;;;9.10;2.10;;;30.30;55.80;;;;;;5099095;28;20055;-74
2022/06/12 10:43:36;;;;;;;4.53;1.83;;;30.20;55.20;;;;;;5087068;28;20039;-74
2022/06/12 10:46:42;;;;;;;3.20;1.83;;;30.20;56.20;;;;;;5099367;28;20047;-73
2022/06/12 10:50:00;;;;;;;4.28;1.45;;;30.20;55.70;;;;;;5100288;28;20032;-72
2022/06/12 10:53:20;;;;;;;4.47;1.63;;;30.20;54.50;;;;;;5098784;28;20047;-72
2022/06/12 10:56:51;;;;;;;4.30;2.00;;;30.10;54.10;;;;;;5098916;28;20108;-73
2022/06/12 11:00:41;;;;;;;4.72;1.90;;;30.20;55.80;;;;;;5097724;28;20051;-73
2022/06/12 11:04:05;;;;;;;6.07;2.20;;;30.40;55.10;;;;;;5074026;28;20051;-73
2022/06/12 11:07:28;;;;;;;5.45;1.50;;;30.60;54.80;;;;;;5095937;28;20407;-73
2022/06/12 11:10:35;;;;;;;5.47;1.63;;;30.30;54.80;;;;;;5085315;28;20051;-74
2022/06/12 11:13:55;;;;;;;5.07;1.90;;;30.20;54.80;;;;;;5097205;28;20055;-72
2022/06/12 11:17:43;;;;;;;6.97;1.67;;;30.20;55.10;;;;;;5096540;28;20039;-72
2022/06/12 11:21:45;;;;;;;2.35;1.60;;;30.40;54.90;;;;;;5097000;28;20050;-73
2022/06/12 11:25:11;;;;;;;5.28;1.65;;;30.20;55.00;;;;;;5082241;28;20043;-73
2022/06/12 11:28:58;;;;;;;4.63;1.63;;;30.40;55.20;;;;;;5096577;28;20039;-74
2022/06/12 11:32:40;;;;;;;2.53;1.60;;;30.50;54.60;;;;;;5095085;28;20051;-73
2022/06/12 11:36:07;;;;;;;4.97;1.65;;;30.30;54.70;;;;;;5097059;28;20051;-72
2022/06/12 11:39:32;;;;;;;2.17;1.42;;;30.30;54.30;;;;;;5096325;28;20051;-72
2022/06/12 11:42:52;;;;;;;5.45;1.77;;;30.50;54.20;;;;;;5096104;28;20683;-74
2022/06/12 11:46:34;;;;;;;4.13;1.60;;;30.40;54.60;;;;;;5095636;28;20043;-71
2022/06/12 11:50:09;;;;;;;9.82;2.22;;;30.40;55.00;;;;;;5094914;28;20047;-73
2022/06/12 11:53:45;;;;;;;4.60;1.65;;;30.60;54.80;;;;;;5095305;28;20505;-72
2022/06/12 11:57:00;;;;;;;5.65;1.77;;;30.70;54.40;;;;;;5095894;28;20050;-72
2022/06/12 12:00:12;;;;;;;3.45;1.63;;;30.70;54.40;;;;;;5082949;28;20059;-73
2022/06/12 12:03:44;;;;;;;5.40;1.90;;;30.60;52.90;;;;;;5095044;28;20051;-72
2022/06/12 12:06:56;;;;;;;5.15;1.27;;;30.50;53.50;;;;;;5095902;28;20040;-72
2022/06/12 12:10:55;;;;;;;4.63;1.25;;;30.60;52.70;;;;;;5095906;28;20110;-72
2022/06/12 12:14:04;;;;;;;7.65;1.98;;;30.60;52.60;;;;;;5074474;28;20122;-72
2022/06/12 12:17:33;;;;;;;2.78;1.27;;;30.60;52.40;;;;;;5095800;28;20043;-72
2022/06/12 12:20:42;;;;;;;1.80;1.40;;;30.60;52.80;;;;;;5095194;28;20047;-74
2022/06/12 12:23:47;;;;;;;6.35;1.70;;;30.60;52.30;;;;;;5070312;28;20066;-73
2022/06/12 12:26:56;;;;;;;4.75;1.67;;;30.50;52.70;;;;;;5095356;28;20043;-72
2022/06/12 12:30:03;;;;;;;2.78;1.60;;;30.30;52.50;;;;;;5094042;28;20039;-72
2022/06/12 12:33:14;;;;;;;3.00;1.17;;;30.30;52.30;;;;;;5094046;28;20379;-72
2022/06/12 12:43:06;;;;;;;4.47;1.75;;;30.30;52.30;;;;;;5091693;28;20395;-73
2022/06/12 12:46:11;;;;;;;3.83;1.23;;;30.30;51.90;;;;;;5092360;28;20051;-74
2022/06/12 12:49:26;;;;;;;3.05;1.40;;;30.40;51.70;;;;;;5092063;28;20046;-72
2022/06/12 12:52:52;;;;;;;5.13;1.70;;;30.30;51.70;;;;;;5090840;28;20055;-76
2022/06/12 12:56:13;;;;;;;5.55;1.60;;;30.30;52.20;;;;;;5091994;28;20047;-73
2022/06/12 12:59:20;;;;;;;4.07;1.27;;;30.40;51.80;;;;;;5091807;28;20213;-73
2022/06/12 13:02:30;;;;;;;19.83;2.65;;;30.50;51.50;;;;;;5091831;28;20043;-75
2022/06/12 13:05:46;;;;;;;7.20;1.67;;;30.50;50.90;;;;;;5091387;28;20043;-72
2022/06/12 13:09:23;;;;;;;3.78;1.50;;;30.40;51.60;;;;;;5091792;28;20507;-73
2022/06/12 13:12:41;;;;;;;2.92;1.40;;;30.30;51.20;;;;;;5091957;28;20047;-74
2022/06/12 13:15:58;;;;;;;3.67;1.40;;;30.30;51.00;;;;;;5090736;28;20055;-74
2022/06/12 13:19:08;;;;;;;7.57;1.60;;;30.30;51.40;;;;;;5091302;28;20051;-74
2022/06/12 13:22:48;;;;;;;8.73;1.50;;;30.20;51.40;;;;;;5091457;28;20240;-73
2022/06/12 13:25:54;;;;;;;3.58;1.42;;;30.20;51.70;;;;;;5091861;28;20050;-73
2022/06/12 13:29:01;;;;;;;4.22;1.67;;;30.30;51.70;;;;;;5079122;28;20051;-72
2022/06/12 13:32:05;;;;;;;4.35;1.50;;;30.30;51.80;;;;;;5091470;28;20364;-73
2022/06/12 13:35:21;;;;;;;2.38;1.50;;;30.30;51.10;;;;;;5090416;28;20047;-72
2022/06/12 13:38:30;;;;;;;2.20;1.15;;;30.40;52.00;;;;;;5091234;28;20051;-72
2022/06/12 13:41:45;;;;;;;2.25;1.35;;;30.40;50.90;;;;;;5091211;28;20047;-72
2022/06/12 13:44:49;;;;;;;2.33;1.30;;;30.30;51.10;;;;;;5091298;28;20043;-74
2022/06/12 13:47:53;;;;;;;5.15;1.48;;;30.20;51.50;;;;;;5090597;28;20391;-74
2022/06/12 13:51:29;;;;;;;7.55;1.40;;;30.30;51.30;;;;;;5091042;28;20044;-73
2022/06/12 13:54:41;;;;;;;5.20;1.35;;;30.40;50.70;;;;;;5091430;28;20051;-75
2022/06/12 13:57:46;;;;;;;16.90;2.10;;;30.30;50.70;;;;;;5091252;28;20503;-74
2022/06/12 14:00:58;;;;;;;3.78;1.30;;;30.40;50.50;;;;;;5091007;28;20059;-72
2022/06/12 14:04:05;;;;;;;5.35;1.25;;;30.30;50.30;;;;;;5091206;28;20047;-76
2022/06/12 14:07:10;;;;;;;3.35;1.10;;;30.20;50.50;;;;;;5089999;28;20051;-73
2022/06/12 14:10:22;;;;;;;5.65;1.40;;;30.20;50.40;;;;;;5090941;28;20047;-74
2022/06/12 14:13:36;;;;;;;5.97;1.30;;;30.30;51.30;;;;;;5090979;28;20043;-71
2022/06/12 14:16:46;;;;;;;17.95;1.92;;;30.20;50.90;;;;;;5091230;28;20043;-73
2022/06/12 14:20:05;;;;;;;9.02;1.30;;;30.30;51.50;;;;;;5094842;28;20063;-72
2022/06/12 14:23:24;;;;;;;3.83;1.50;;;30.20;50.60;;;;;;5094339;28;20212;-73
2022/06/12 14:26:36;;;;;;;9.27;1.52;;;30.20;51.00;;;;;;5094674;28;20055;-73
2022/06/12 14:29:44;;;;;;;2.20;1.30;;;30.10;50.80;;;;;;5093948;28;20054;-72
2022/06/12 14:32:48;;;;;;;3.50;1.35;;;30.10;50.90;;;;;;5094289;28;20043;-71
2022/06/12 14:35:53;;;;;;;2.40;1.27;;;30.20;51.10;;;;;;5094714;28;20059;-74
2022/06/12 14:39:08;;;;;;;5.57;1.23;;;30.20;51.20;;;;;;5094486;28;20058;-73
2022/06/12 14:42:18;;;;;;;2.08;1.42;;;30.20;50.90;;;;;;5093946;28;20039;-72
2022/06/12 14:45:22;;;;;;;3.53;1.30;;;30.20;50.70;;;;;;5093222;28;20478;-74
2022/06/12 14:48:34;;;;;;;4.13;1.50;;;30.20;50.30;;;;;;5093987;28;20610;-72
2022/06/12 14:51:38;;;;;;;2.90;1.40;;;30.00;50.50;;;;;;5094091;28;20043;-73
2022/06/12 14:54:42;;;;;;;2.88;1.60;;;30.00;50.70;;;;;;5093671;28;20062;-73
2022/06/12 14:57:46;;;;;;;3.65;1.50;;;30.10;50.60;;;;;;5093569;28;20043;-74
2022/06/12 15:00:50;;;;;;;5.63;1.40;;;30.10;51.20;;;;;;5092616;28;20055;-73
2022/06/12 15:03:54;;;;;;;6.95;2.05;;;30.10;51.50;;;;;;5093414;28;20511;-75
2022/06/12 15:06:58;;;;;;;2.10;1.15;;;30.00;50.90;;;;;;5092673;28;20051;-73
2022/06/12 15:10:02;;;;;;;4.55;1.70;;;30.10;50.60;;;;;;5093694;28;20050;-73
2022/06/12 15:13:07;;;;;;;5.43;1.70;;;30.10;49.90;;;;;;5093271;28;20039;-72
2022/06/12 15:16:12;;;;;;;3.05;1.27;;;30.10;50.00;;;;;;5093172;28;20058;-73
2022/06/12 15:19:16;;;;;;;3.15;1.30;;;30.10;49.60;;;;;;5093022;28;20039;-73
2022/06/12 15:22:21;;;;;;;2.00;1.30;;;30.00;50.20;;;;;;5092905;28;20039;-73
2022/06/12 15:32:19;;;;;;;4.80;1.30;;;30.10;50.40;;;;;;5091991;28;20043;-74
2022/06/12 15:35:23;;;;;;;3.58;1.60;;;30.10;50.10;;;;;;5092860;28;20501;-74
2022/06/12 15:38:27;;;;;;;5.15;1.30;;;30.10;49.60;;;;;;5092612;28;20047;-72
2022/06/12 15:41:32;;;;;;;2.63;1.20;;;30.10;49.00;;;;;;5091619;28;20047;-73
2022/06/12 15:44:36;;;;;;;3.42;1.45;;;30.00;49.40;;;;;;5092199;28;20039;-72
2022/06/12 15:47:41;;;;;;;2.42;1.20;;;29.90;49.40;;;;;;5091859;28;20047;-71
2022/06/12 15:50:45;;;;;;;2.70;1.73;;;29.90;49.90;;;;;;5092349;28;20422;-73
2022/06/12 15:53:51;;;;;;;2.67;1.80;;;30.00;50.10;;;;;;5092438;28;20039;-73
2022/06/12 15:56:56;;;;;;;14.63;1.70;;;30.00;50.20;;;;;;5092981;28;20051;-73
2022/06/12 16:00:00;;;;;;;2.47;1.38;;;30.00;50.30;;;;;;5091968;28;20051;-72
2022/06/12 16:03:04;;;;;;;7.15;1.38;;;30.00;49.70;;;;;;5091168;28;20047;-72
2022/06/12 16:06:09;;;;;;;3.83;1.48;;;30.00;49.20;;;;;;5092093;28;20051;-73
2022/06/12 16:09:14;;;;;;;4.32;1.50;;;29.90;49.00;;;;;;5092147;28;20046;-72
2022/06/12 16:12:18;;;;;;;5.93;1.60;;;29.90;49.10;;;;;;5091483;28;20043;-72
2022/06/12 16:15:25;;;;;;;3.60;1.75;;;29.90;48.80;;;;;;5092161;28;20506;-73
2022/06/12 16:18:29;;;;;;;4.20;1.60;;;29.70;48.90;;;;;;5079698;28;20066;-74
2022/06/12 16:21:34;;;;;;;2.05;1.30;;;29.60;49.00;;;;;;5092043;28;20051;-74
2022/06/12 16:24:38;;;;;;;3.40;1.60;;;29.70;49.30;;;;;;5092011;28;20043;-75
2022/06/12 16:27:42;;;;;;;3.75;1.58;;;29.70;49.10;;;;;;5091843;28;20043;-74
2022/06/12 16:30:48;;;;;;;4.80;1.38;;;29.80;49.10;;;;;;5091591;28;20407;-73
2022/06/12 16:33:52;;;;;;;2.40;1.20;;;29.70;48.90;;;;;;5091573;28;20047;-74
2022/06/12 16:36:56;;;;;;;2.67;1.30;;;29.60;48.90;;;;;;5091608;28;20054;-71
2022/06/12 16:40:00;;;;;;;4.30;1.70;;;29.60;48.70;;;;;;5091701;28;20051;-73
2022/06/12 16:43:05;;;;;;;6.15;1.50;;;29.60;48.60;;;;;;5090743;28;20062;-73
2022/06/12 16:46:09;;;;;;;5.75;1.70;;;29.60;48.60;;;;;;5090738;28;20039;-74
2022/06/12 16:49:22;;;;;;;7.85;2.17;;;29.60;48.30;;;;;;5091915;28;20494;-71
2022/06/12 16:52:26;;;;;;;5.38;1.38;;;29.60;49.00;;;;;;5090508;28;20400;-73
2022/06/12 16:55:30;;;;;;;4.38;1.40;;;29.50;49.10;;;;;;5090272;28;20055;-73
2022/06/12 16:58:36;;;;;;;3.50;1.27;;;29.40;49.20;;;;;;5091109;28;20047;-79
2022/06/12 17:01:42;;;;;;;4.60;1.27;;;29.40;49.10;;;;;;5090942;28;20550;-74
2022/06/12 17:04:46;;;;;;;4.65;2.30;;;29.30;48.80;;;;;;5091063;28;20046;-73
2022/06/12 17:07:59;;;;;;;3.60;1.40;;;29.30;49.20;;;;;;5090962;28;20059;-71
2022/06/12 17:11:03;;;;;;;7.50;1.27;;;29.30;49.10;;;;;;5090803;28;20047;-73